< < Back
Terminal Aerodrome Forecast


Current Version              Previous Versions:   1  2  3  4  5  6  7  8  9  

Terminal Aerodrome Forecast

880
FTUS42 KFFC 301800 AAA
TAFCSG
TAF AMD
KCSG 301858Z 3019/0118 04005KT P6SM SCT020 BKN040
      TEMPO 3019/3022 BKN025
     FM302200 VRB03KT P6SM SCT040
     FM011000 00000KT 2SM BR SCT008
     FM011400 23005KT P6SM SCT040=



Latest METAR

927
SAUS70 KWBC 302000
MTRCSG
METAR KCSG 301951Z 00000KT 10SM SCT029 OVC050 26/18 A2988 RMK AO2 SLP112
T02610183


USA.gov is the U.S. government's official web portal to all federal, state and local government web resources and services.